sensor_id;sensor_type;location;lat;lon;timestamp;P1;durP1;ratioP1;P2;durP2;ratioP2
4939;SDS011;2485;49.326;7.214;2023-06-10T00:01:23;14.17;;;7.50;;
4939;SDS011;2485;49.326;7.214;2023-06-10T00:03:50;10.23;;;8.07;;
4939;SDS011;2485;49.326;7.214;2023-06-10T00:06:16;8.73;;;7.10;;
4939;SDS011;2485;49.326;7.214;2023-06-10T00:08:43;8.30;;;7.00;;
4939;SDS011;2485;49.326;7.214;2023-06-10T00:11:12;9.43;;;7.80;;
4939;SDS011;2485;49.326;7.214;2023-06-10T00:13:38;8.80;;;7.20;;
4939;SDS011;2485;49.326;7.214;2023-06-10T00:16:05;9.17;;;7.30;;
4939;SDS011;2485;49.326;7.214;2023-06-10T00:18:33;9.87;;;7.57;;
4939;SDS011;2485;49.326;7.214;2023-06-10T00:21:02;8.50;;;7.63;;
4939;SDS011;2485;49.326;7.214;2023-06-10T00:23:29;10.40;;;8.17;;
4939;SDS011;2485;49.326;7.214;2023-06-10T00:25:57;9.57;;;7.53;;
4939;SDS011;2485;49.326;7.214;2023-06-10T00:28:24;10.17;;;7.50;;
4939;SDS011;2485;49.326;7.214;2023-06-10T00:30:51;12.40;;;7.53;;
4939;SDS011;2485;49.326;7.214;2023-06-10T00:33:17;9.73;;;8.17;;
4939;SDS011;2485;49.326;7.214;2023-06-10T00:35:46;11.90;;;8.03;;
4939;SDS011;2485;49.326;7.214;2023-06-10T00:38:13;10.10;;;7.80;;
4939;SDS011;2485;49.326;7.214;2023-06-10T00:40:39;8.10;;;7.30;;
4939;SDS011;2485;49.326;7.214;2023-06-10T00:43:06;8.20;;;7.17;;
4939;SDS011;2485;49.326;7.214;2023-06-10T00:45:32;11.20;;;8.13;;
4939;SDS011;2485;49.326;7.214;2023-06-10T00:47:59;8.50;;;7.60;;
4939;SDS011;2485;49.326;7.214;2023-06-10T00:50:26;9.90;;;8.10;;
4939;SDS011;2485;49.326;7.214;2023-06-10T00:52:54;8.33;;;6.97;;
4939;SDS011;2485;49.326;7.214;2023-06-10T00:55:21;12.30;;;7.33;;
4939;SDS011;2485;49.326;7.214;2023-06-10T00:57:48;12.60;;;7.33;;
4939;SDS011;2485;49.326;7.214;2023-06-10T01:00:16;13.13;;;8.50;;
4939;SDS011;2485;49.326;7.214;2023-06-10T01:02:43;11.00;;;8.30;;
4939;SDS011;2485;49.326;7.214;2023-06-10T01:05:09;11.50;;;8.23;;
4939;SDS011;2485;49.326;7.214;2023-06-10T01:07:38;8.20;;;7.40;;
4939;SDS011;2485;49.326;7.214;2023-06-10T01:10:09;9.27;;;7.77;;
4939;SDS011;2485;49.326;7.214;2023-06-10T01:12:39;9.13;;;8.10;;
4939;SDS011;2485;49.326;7.214;2023-06-10T01:15:08;9.23;;;8.03;;
4939;SDS011;2485;49.326;7.214;2023-06-10T01:17:36;9.60;;;7.97;;
4939;SDS011;2485;49.326;7.214;2023-06-10T01:20:04;8.97;;;7.63;;
4939;SDS011;2485;49.326;7.214;2023-06-10T01:22:38;9.73;;;8.13;;
4939;SDS011;2485;49.326;7.214;2023-06-10T01:25:04;9.37;;;8.47;;
4939;SDS011;2485;49.326;7.214;2023-06-10T01:27:32;9.90;;;8.10;;
4939;SDS011;2485;49.326;7.214;2023-06-10T01:30:03;9.87;;;8.33;;
4939;SDS011;2485;49.326;7.214;2023-06-10T01:32:32;11.37;;;8.07;;
4939;SDS011;2485;49.326;7.214;2023-06-10T01:34:59;10.50;;;8.23;;
4939;SDS011;2485;49.326;7.214;2023-06-10T01:37:27;11.70;;;8.10;;
4939;SDS011;2485;49.326;7.214;2023-06-10T01:39:57;10.43;;;8.60;;
4939;SDS011;2485;49.326;7.214;2023-06-10T01:42:23;8.50;;;7.60;;
4939;SDS011;2485;49.326;7.214;2023-06-10T01:44:51;11.10;;;8.63;;
4939;SDS011;2485;49.326;7.214;2023-06-10T01:47:17;9.33;;;7.60;;
4939;SDS011;2485;49.326;7.214;2023-06-10T01:49:43;9.77;;;8.00;;
4939;SDS011;2485;49.326;7.214;2023-06-10T01:52:10;8.60;;;7.70;;
4939;SDS011;2485;49.326;7.214;2023-06-10T01:54:36;12.63;;;8.30;;
4939;SDS011;2485;49.326;7.214;2023-06-10T01:57:05;9.97;;;8.03;;
4939;SDS011;2485;49.326;7.214;2023-06-10T01:59:32;12.67;;;8.70;;
4939;SDS011;2485;49.326;7.214;2023-06-10T02:01:58;10.13;;;8.57;;
4939;SDS011;2485;49.326;7.214;2023-06-10T02:04:25;9.87;;;8.53;;
4939;SDS011;2485;49.326;7.214;2023-06-10T02:06:51;9.43;;;8.10;;
4939;SDS011;2485;49.326;7.214;2023-06-10T02:09:18;10.80;;;9.00;;
4939;SDS011;2485;49.326;7.214;2023-06-10T02:11:45;10.27;;;9.27;;
4939;SDS011;2485;49.326;7.214;2023-06-10T02:14:12;13.00;;;8.33;;
4939;SDS011;2485;49.326;7.214;2023-06-10T02:16:39;10.50;;;8.53;;
4939;SDS011;2485;49.326;7.214;2023-06-10T02:19:05;10.47;;;8.20;;
4939;SDS011;2485;49.326;7.214;2023-06-10T02:21:32;13.00;;;8.50;;
4939;SDS011;2485;49.326;7.214;2023-06-10T02:23:59;11.37;;;7.60;;
4939;SDS011;2485;49.326;7.214;2023-06-10T02:26:25;10.10;;;8.83;;
4939;SDS011;2485;49.326;7.214;2023-06-10T02:28:52;11.80;;;8.70;;
4939;SDS011;2485;49.326;7.214;2023-06-10T02:31:20;9.87;;;8.80;;
4939;SDS011;2485;49.326;7.214;2023-06-10T02:33:46;11.33;;;8.63;;
4939;SDS011;2485;49.326;7.214;2023-06-10T02:36:13;11.10;;;8.77;;
4939;SDS011;2485;49.326;7.214;2023-06-10T02:38:40;10.00;;;8.70;;
4939;SDS011;2485;49.326;7.214;2023-06-10T02:41:07;10.00;;;8.60;;
4939;SDS011;2485;49.326;7.214;2023-06-10T02:43:33;10.07;;;8.60;;
4939;SDS011;2485;49.326;7.214;2023-06-10T02:46:00;11.10;;;9.17;;
4939;SDS011;2485;49.326;7.214;2023-06-10T02:48:28;8.83;;;7.30;;
4939;SDS011;2485;49.326;7.214;2023-06-10T02:50:54;10.23;;;7.97;;
4939;SDS011;2485;49.326;7.214;2023-06-10T02:53:21;9.60;;;7.87;;
4939;SDS011;2485;49.326;7.214;2023-06-10T02:55:48;8.17;;;7.13;;
4939;SDS011;2485;49.326;7.214;2023-06-10T02:58:14;11.00;;;8.03;;
4939;SDS011;2485;49.326;7.214;2023-06-10T03:00:41;9.10;;;7.73;;
4939;SDS011;2485;49.326;7.214;2023-06-10T03:03:08;8.17;;;7.37;;
4939;SDS011;2485;49.326;7.214;2023-06-10T03:05:37;9.53;;;7.53;;
4939;SDS011;2485;49.326;7.214;2023-06-10T03:08:04;12.37;;;9.23;;
4939;SDS011;2485;49.326;7.214;2023-06-10T03:10:30;10.63;;;7.63;;
4939;SDS011;2485;49.326;7.214;2023-06-10T03:12:58;9.40;;;7.87;;
4939;SDS011;2485;49.326;7.214;2023-06-10T03:15:24;9.93;;;8.47;;
4939;SDS011;2485;49.326;7.214;2023-06-10T03:17:51;9.00;;;8.10;;
4939;SDS011;2485;49.326;7.214;2023-06-10T03:20:17;10.10;;;8.43;;
4939;SDS011;2485;49.326;7.214;2023-06-10T03:22:45;9.93;;;8.80;;
4939;SDS011;2485;49.326;7.214;2023-06-10T03:25:11;11.00;;;8.57;;
4939;SDS011;2485;49.326;7.214;2023-06-10T03:27:39;12.20;;;9.33;;
4939;SDS011;2485;49.326;7.214;2023-06-10T03:30:05;11.83;;;8.77;;
4939;SDS011;2485;49.326;7.214;2023-06-10T03:32:32;8.97;;;7.97;;
4939;SDS011;2485;49.326;7.214;2023-06-10T03:34:59;10.23;;;8.90;;
4939;SDS011;2485;49.326;7.214;2023-06-10T03:37:25;10.20;;;8.90;;
4939;SDS011;2485;49.326;7.214;2023-06-10T03:39:53;13.43;;;9.20;;
4939;SDS011;2485;49.326;7.214;2023-06-10T03:42:19;11.73;;;8.57;;
4939;SDS011;2485;49.326;7.214;2023-06-10T03:44:46;8.63;;;7.77;;
4939;SDS011;2485;49.326;7.214;2023-06-10T03:47:12;10.47;;;8.00;;
4939;SDS011;2485;49.326;7.214;2023-06-10T03:49:39;9.10;;;8.13;;
4939;SDS011;2485;49.326;7.214;2023-06-10T03:52:05;8.83;;;7.47;;
4939;SDS011;2485;49.326;7.214;2023-06-10T03:54:32;11.50;;;8.00;;
4939;SDS011;2485;49.326;7.214;2023-06-10T03:57:01;10.13;;;9.07;;
4939;SDS011;2485;49.326;7.214;2023-06-10T03:59:28;9.73;;;8.73;;
4939;SDS011;2485;49.326;7.214;2023-06-10T04:01:55;10.23;;;8.97;;
4939;SDS011;2485;49.326;7.214;2023-06-10T04:04:21;10.53;;;8.60;;
4939;SDS011;2485;49.326;7.214;2023-06-10T04:06:48;10.60;;;8.60;;
4939;SDS011;2485;49.326;7.214;2023-06-10T04:09:14;13.33;;;9.27;;
4939;SDS011;2485;49.326;7.214;2023-06-10T04:11:41;13.80;;;9.33;;
4939;SDS011;2485;49.326;7.214;2023-06-10T04:14:09;16.23;;;9.07;;
4939;SDS011;2485;49.326;7.214;2023-06-10T04:16:35;12.37;;;9.40;;
4939;SDS011;2485;49.326;7.214;2023-06-10T04:19:03;12.67;;;9.03;;
4939;SDS011;2485;49.326;7.214;2023-06-10T04:21:29;15.60;;;8.57;;
4939;SDS011;2485;49.326;7.214;2023-06-10T04:23:56;11.57;;;9.17;;
4939;SDS011;2485;49.326;7.214;2023-06-10T04:26:22;10.50;;;8.67;;
4939;SDS011;2485;49.326;7.214;2023-06-10T04:28:49;9.97;;;8.53;;
4939;SDS011;2485;49.326;7.214;2023-06-10T04:31:16;12.50;;;8.47;;
4939;SDS011;2485;49.326;7.214;2023-06-10T04:33:43;10.10;;;7.77;;
4939;SDS011;2485;49.326;7.214;2023-06-10T04:36:09;13.47;;;7.73;;
4939;SDS011;2485;49.326;7.214;2023-06-10T04:38:36;10.93;;;8.53;;
4939;SDS011;2485;49.326;7.214;2023-06-10T04:41:02;9.33;;;8.40;;
4939;SDS011;2485;49.326;7.214;2023-06-10T04:43:29;8.20;;;7.40;;
4939;SDS011;2485;49.326;7.214;2023-06-10T04:45:55;11.03;;;8.30;;
4939;SDS011;2485;49.326;7.214;2023-06-10T04:48:23;8.77;;;7.90;;
4939;SDS011;2485;49.326;7.214;2023-06-10T04:50:50;8.40;;;7.60;;
4939;SDS011;2485;49.326;7.214;2023-06-10T04:53:16;11.27;;;7.47;;
4939;SDS011;2485;49.326;7.214;2023-06-10T04:55:43;9.07;;;8.17;;
4939;SDS011;2485;49.326;7.214;2023-06-10T04:58:09;11.70;;;8.37;;
4939;SDS011;2485;49.326;7.214;2023-06-10T05:00:36;10.30;;;8.00;;
4939;SDS011;2485;49.326;7.214;2023-06-10T05:03:02;9.30;;;8.33;;
4939;SDS011;2485;49.326;7.214;2023-06-10T05:05:30;8.10;;;7.30;;
4939;SDS011;2485;49.326;7.214;2023-06-10T05:07:56;10.13;;;8.33;;
4939;SDS011;2485;49.326;7.214;2023-06-10T05:10:23;11.03;;;7.77;;
4939;SDS011;2485;49.326;7.214;2023-06-10T05:12:49;9.13;;;8.17;;
4939;SDS011;2485;49.326;7.214;2023-06-10T05:15:16;8.97;;;7.80;;
4939;SDS011;2485;49.326;7.214;2023-06-10T05:17:42;8.90;;;7.80;;
4939;SDS011;2485;49.326;7.214;2023-06-10T05:20:09;10.40;;;7.90;;
4939;SDS011;2485;49.326;7.214;2023-06-10T05:22:37;11.30;;;6.90;;
4939;SDS011;2485;49.326;7.214;2023-06-10T05:25:04;9.73;;;7.83;;
4939;SDS011;2485;49.326;7.214;2023-06-10T05:27:31;8.07;;;7.27;;
4939;SDS011;2485;49.326;7.214;2023-06-10T05:29:57;8.07;;;7.10;;
4939;SDS011;2485;49.326;7.214;2023-06-10T05:32:23;8.17;;;6.70;;
4939;SDS011;2485;49.326;7.214;2023-06-10T05:34:50;8.00;;;7.20;;
4939;SDS011;2485;49.326;7.214;2023-06-10T05:37:16;15.03;;;8.00;;
4939;SDS011;2485;49.326;7.214;2023-06-10T05:39:44;8.83;;;7.60;;
4939;SDS011;2485;49.326;7.214;2023-06-10T05:42:10;7.93;;;7.13;;
4939;SDS011;2485;49.326;7.214;2023-06-10T05:44:37;10.63;;;7.80;;
4939;SDS011;2485;49.326;7.214;2023-06-10T05:47:03;8.63;;;7.00;;
4939;SDS011;2485;49.326;7.214;2023-06-10T05:49:30;8.10;;;6.70;;
4939;SDS011;2485;49.326;7.214;2023-06-10T05:51:56;14.30;;;7.30;;
4939;SDS011;2485;49.326;7.214;2023-06-10T05:54:24;9.87;;;6.90;;
4939;SDS011;2485;49.326;7.214;2023-06-10T05:56:52;9.53;;;6.60;;
4939;SDS011;2485;49.326;7.214;2023-06-10T05:59:18;10.33;;;7.00;;
4939;SDS011;2485;49.326;7.214;2023-06-10T06:01:45;7.33;;;6.37;;
4939;SDS011;2485;49.326;7.214;2023-06-10T06:04:11;8.00;;;7.20;;
4939;SDS011;2485;49.326;7.214;2023-06-10T06:06:38;9.00;;;6.03;;
4939;SDS011;2485;49.326;7.214;2023-06-10T06:09:04;8.70;;;6.53;;
4939;SDS011;2485;49.326;7.214;2023-06-10T06:11:31;8.00;;;6.60;;
4939;SDS011;2485;49.326;7.214;2023-06-10T06:13:59;7.50;;;6.77;;
4939;SDS011;2485;49.326;7.214;2023-06-10T06:16:25;9.33;;;6.70;;
4939;SDS011;2485;49.326;7.214;2023-06-10T06:18:51;6.63;;;5.87;;
4939;SDS011;2485;49.326;7.214;2023-06-10T06:21:18;7.90;;;6.07;;
4939;SDS011;2485;49.326;7.214;2023-06-10T06:23:44;6.67;;;6.00;;
4939;SDS011;2485;49.326;7.214;2023-06-10T06:26:11;11.07;;;7.37;;
4939;SDS011;2485;49.326;7.214;2023-06-10T06:28:37;6.80;;;6.10;;
4939;SDS011;2485;49.326;7.214;2023-06-10T06:31:05;8.43;;;6.17;;
4939;SDS011;2485;49.326;7.214;2023-06-10T06:33:31;7.37;;;6.67;;
4939;SDS011;2485;49.326;7.214;2023-06-10T06:35:57;9.23;;;6.87;;
4939;SDS011;2485;49.326;7.214;2023-06-10T06:38:25;9.73;;;6.77;;
4939;SDS011;2485;49.326;7.214;2023-06-10T06:40:51;7.90;;;6.27;;
4939;SDS011;2485;49.326;7.214;2023-06-10T06:43:18;6.53;;;5.93;;
4939;SDS011;2485;49.326;7.214;2023-06-10T06:45:44;10.70;;;6.63;;
4939;SDS011;2485;49.326;7.214;2023-06-10T06:48:12;6.90;;;6.20;;
4939;SDS011;2485;49.326;7.214;2023-06-10T06:50:38;7.13;;;6.40;;
4939;SDS011;2485;49.326;7.214;2023-06-10T06:53:06;7.23;;;6.40;;
4939;SDS011;2485;49.326;7.214;2023-06-10T06:55:33;9.53;;;6.87;;
4939;SDS011;2485;49.326;7.214;2023-06-10T06:57:59;6.50;;;5.53;;
4939;SDS011;2485;49.326;7.214;2023-06-10T07:00:29;6.77;;;6.17;;
4939;SDS011;2485;49.326;7.214;2023-06-10T07:02:56;7.83;;;6.47;;
4939;SDS011;2485;49.326;7.214;2023-06-10T07:05:24;8.73;;;5.83;;
4939;SDS011;2485;49.326;7.214;2023-06-10T07:07:52;6.43;;;5.83;;
4939;SDS011;2485;49.326;7.214;2023-06-10T07:10:20;8.43;;;6.07;;
4939;SDS011;2485;49.326;7.214;2023-06-10T07:12:47;8.53;;;6.60;;
4939;SDS011;2485;49.326;7.214;2023-06-10T07:15:13;8.37;;;6.20;;
4939;SDS011;2485;49.326;7.214;2023-06-10T07:17:39;7.40;;;5.83;;
4939;SDS011;2485;49.326;7.214;2023-06-10T07:20:06;7.27;;;6.20;;
4939;SDS011;2485;49.326;7.214;2023-06-10T07:22:34;7.77;;;7.00;;
4939;SDS011;2485;49.326;7.214;2023-06-10T07:25:00;8.17;;;6.07;;
4939;SDS011;2485;49.326;7.214;2023-06-10T07:27:27;7.87;;;7.07;;
4939;SDS011;2485;49.326;7.214;2023-06-10T07:29:53;6.77;;;6.07;;
4939;SDS011;2485;49.326;7.214;2023-06-10T07:32:20;7.10;;;6.23;;
4939;SDS011;2485;49.326;7.214;2023-06-10T07:34:48;5.73;;;4.97;;
4939;SDS011;2485;49.326;7.214;2023-06-10T07:37:15;9.87;;;6.07;;
4939;SDS011;2485;49.326;7.214;2023-06-10T07:39:42;7.37;;;6.50;;
4939;SDS011;2485;49.326;7.214;2023-06-10T07:42:09;7.80;;;6.30;;
4939;SDS011;2485;49.326;7.214;2023-06-10T07:44:36;7.10;;;5.93;;
4939;SDS011;2485;49.326;7.214;2023-06-10T07:47:02;7.70;;;6.80;;
4939;SDS011;2485;49.326;7.214;2023-06-10T07:49:29;9.80;;;6.83;;
4939;SDS011;2485;49.326;7.214;2023-06-10T07:51:56;7.10;;;6.40;;
4939;SDS011;2485;49.326;7.214;2023-06-10T07:54:22;7.60;;;6.47;;
4939;SDS011;2485;49.326;7.214;2023-06-10T07:56:50;6.77;;;6.17;;
4939;SDS011;2485;49.326;7.214;2023-06-10T07:59:18;10.53;;;7.50;;
4939;SDS011;2485;49.326;7.214;2023-06-10T08:01:44;6.10;;;5.53;;
4939;SDS011;2485;49.326;7.214;2023-06-10T08:04:11;7.30;;;5.40;;
4939;SDS011;2485;49.326;7.214;2023-06-10T08:06:37;6.10;;;5.50;;
4939;SDS011;2485;49.326;7.214;2023-06-10T08:09:04;8.20;;;6.10;;
4939;SDS011;2485;49.326;7.214;2023-06-10T08:11:30;8.43;;;5.70;;
4939;SDS011;2485;49.326;7.214;2023-06-10T08:13:58;5.93;;;5.43;;
4939;SDS011;2485;49.326;7.214;2023-06-10T08:16:24;7.03;;;6.33;;
4939;SDS011;2485;49.326;7.214;2023-06-10T08:18:51;6.97;;;5.70;;
4939;SDS011;2485;49.326;7.214;2023-06-10T08:21:18;6.40;;;5.80;;
4939;SDS011;2485;49.326;7.214;2023-06-10T08:23:44;7.87;;;6.30;;
4939;SDS011;2485;49.326;7.214;2023-06-10T08:26:11;7.60;;;6.00;;
4939;SDS011;2485;49.326;7.214;2023-06-10T08:28:37;7.57;;;6.03;;
4939;SDS011;2485;49.326;7.214;2023-06-10T08:31:05;6.60;;;5.90;;
4939;SDS011;2485;49.326;7.214;2023-06-10T08:33:31;10.43;;;6.60;;
4939;SDS011;2485;49.326;7.214;2023-06-10T08:35:58;8.13;;;6.60;;
4939;SDS011;2485;49.326;7.214;2023-06-10T08:38:24;7.33;;;6.40;;
4939;SDS011;2485;49.326;7.214;2023-06-10T08:40:50;6.90;;;6.20;;
4939;SDS011;2485;49.326;7.214;2023-06-10T08:43:20;6.80;;;6.10;;
4939;SDS011;2485;49.326;7.214;2023-06-10T08:45:48;10.97;;;6.23;;
4939;SDS011;2485;49.326;7.214;2023-06-10T08:48:16;7.33;;;6.57;;
4939;SDS011;2485;49.326;7.214;2023-06-10T08:50:43;8.67;;;6.47;;
4939;SDS011;2485;49.326;7.214;2023-06-10T08:53:10;6.60;;;6.00;;
4939;SDS011;2485;49.326;7.214;2023-06-10T08:55:41;6.60;;;5.90;;
4939;SDS011;2485;49.326;7.214;2023-06-10T08:58:08;7.33;;;6.00;;
4939;SDS011;2485;49.326;7.214;2023-06-10T09:00:35;6.60;;;6.00;;
4939;SDS011;2485;49.326;7.214;2023-06-10T09:03:02;6.73;;;6.13;;
4939;SDS011;2485;49.326;7.214;2023-06-10T09:05:30;6.63;;;5.30;;
4939;SDS011;2485;49.326;7.214;2023-06-10T09:07:58;6.80;;;6.20;;
4939;SDS011;2485;49.326;7.214;2023-06-10T09:10:24;6.60;;;5.70;;
4939;SDS011;2485;49.326;7.214;2023-06-10T09:12:51;5.70;;;5.20;;
4939;SDS011;2485;49.326;7.214;2023-06-10T09:15:18;6.70;;;5.80;;
4939;SDS011;2485;49.326;7.214;2023-06-10T09:17:44;10.20;;;4.80;;
4939;SDS011;2485;49.326;7.214;2023-06-10T09:20:11;4.60;;;3.90;;
4939;SDS011;2485;49.326;7.214;2023-06-10T09:22:40;4.67;;;4.03;;
4939;SDS011;2485;49.326;7.214;2023-06-10T09:25:07;4.80;;;4.40;;
4939;SDS011;2485;49.326;7.214;2023-06-10T09:27:40;4.53;;;4.13;;
4939;SDS011;2485;49.326;7.214;2023-06-10T09:30:10;5.40;;;4.50;;
4939;SDS011;2485;49.326;7.214;2023-06-10T09:32:37;7.37;;;4.43;;
4939;SDS011;2485;49.326;7.214;2023-06-10T09:35:08;4.80;;;4.10;;
4939;SDS011;2485;49.326;7.214;2023-06-10T09:37:38;4.07;;;3.73;;
4939;SDS011;2485;49.326;7.214;2023-06-10T09:40:06;5.20;;;4.23;;
4939;SDS011;2485;49.326;7.214;2023-06-10T09:42:34;5.17;;;3.63;;
4939;SDS011;2485;49.326;7.214;2023-06-10T09:45:01;4.60;;;3.67;;
4939;SDS011;2485;49.326;7.214;2023-06-10T09:47:27;4.50;;;4.10;;
4939;SDS011;2485;49.326;7.214;2023-06-10T09:49:54;12.33;;;4.20;;
4939;SDS011;2485;49.326;7.214;2023-06-10T09:52:21;5.87;;;4.20;;
4939;SDS011;2485;49.326;7.214;2023-06-10T09:54:47;5.33;;;4.20;;
4939;SDS011;2485;49.326;7.214;2023-06-10T09:57:15;4.83;;;4.33;;
4939;SDS011;2485;49.326;7.214;2023-06-10T09:59:42;5.63;;;4.50;;
4939;SDS011;2485;49.326;7.214;2023-06-10T10:02:13;6.03;;;4.47;;
4939;SDS011;2485;49.326;7.214;2023-06-10T10:04:39;5.30;;;4.00;;
4939;SDS011;2485;49.326;7.214;2023-06-10T10:07:06;4.03;;;3.73;;
4939;SDS011;2485;49.326;7.214;2023-06-10T10:09:32;5.40;;;4.40;;
4939;SDS011;2485;49.326;7.214;2023-06-10T10:11:59;5.00;;;4.50;;
4939;SDS011;2485;49.326;7.214;2023-06-10T10:14:29;5.33;;;4.57;;
4939;SDS011;2485;49.326;7.214;2023-06-10T10:16:58;5.20;;;4.47;;
4939;SDS011;2485;49.326;7.214;2023-06-10T10:19:27;6.93;;;4.00;;
4939;SDS011;2485;49.326;7.214;2023-06-10T10:21:54;7.17;;;4.80;;
4939;SDS011;2485;49.326;7.214;2023-06-10T10:24:23;4.57;;;4.17;;
4939;SDS011;2485;49.326;7.214;2023-06-10T10:26:50;5.27;;;4.20;;
4939;SDS011;2485;49.326;7.214;2023-06-10T10:29:20;5.00;;;4.30;;
4939;SDS011;2485;49.326;7.214;2023-06-10T10:31:51;4.73;;;3.83;;
4939;SDS011;2485;49.326;7.214;2023-06-10T10:34:19;4.67;;;4.03;;
4939;SDS011;2485;49.326;7.214;2023-06-10T10:36:47;5.53;;;4.53;;
4939;SDS011;2485;49.326;7.214;2023-06-10T10:39:15;6.17;;;4.07;;
4939;SDS011;2485;49.326;7.214;2023-06-10T10:41:42;4.03;;;3.67;;
4939;SDS011;2485;49.326;7.214;2023-06-10T10:44:09;4.73;;;4.33;;
4939;SDS011;2485;49.326;7.214;2023-06-10T10:46:42;5.90;;;4.33;;
4939;SDS011;2485;49.326;7.214;2023-06-10T10:49:11;5.80;;;3.97;;
4939;SDS011;2485;49.326;7.214;2023-06-10T10:51:38;6.47;;;4.63;;
4939;SDS011;2485;49.326;7.214;2023-06-10T10:54:20;5.37;;;4.03;;
4939;SDS011;2485;49.326;7.214;2023-06-10T10:57:09;11.03;;;5.10;;
4939;SDS011;2485;49.326;7.214;2023-06-10T10:59:42;9.00;;;4.87;;
4939;SDS011;2485;49.326;7.214;2023-06-10T11:02:09;5.00;;;4.50;;
4939;SDS011;2485;49.326;7.214;2023-06-10T11:04:37;4.83;;;4.43;;
4939;SDS011;2485;49.326;7.214;2023-06-10T11:07:05;6.20;;;4.93;;
4939;SDS011;2485;49.326;7.214;2023-06-10T11:09:32;6.60;;;4.00;;
4939;SDS011;2485;49.326;7.214;2023-06-10T11:11:59;5.30;;;4.10;;
4939;SDS011;2485;49.326;7.214;2023-06-10T11:14:27;6.47;;;3.80;;
4939;SDS011;2485;49.326;7.214;2023-06-10T11:16:56;9.10;;;4.60;;
4939;SDS011;2485;49.326;7.214;2023-06-10T11:19:32;4.53;;;4.13;;
4939;SDS011;2485;49.326;7.214;2023-06-10T11:22:01;5.10;;;4.27;;
4939;SDS011;2485;49.326;7.214;2023-06-10T11:24:28;5.43;;;4.43;;
4939;SDS011;2485;49.326;7.214;2023-06-10T11:26:54;5.10;;;4.00;;
4939;SDS011;2485;49.326;7.214;2023-06-10T11:29:21;6.70;;;4.10;;
4939;SDS011;2485;49.326;7.214;2023-06-10T11:31:51;6.00;;;4.50;;
4939;SDS011;2485;49.326;7.214;2023-06-10T11:34:23;5.03;;;4.37;;
4939;SDS011;2485;49.326;7.214;2023-06-10T11:36:50;5.20;;;4.60;;
4939;SDS011;2485;49.326;7.214;2023-06-10T11:39:19;5.20;;;4.17;;
4939;SDS011;2485;49.326;7.214;2023-06-10T11:41:46;4.37;;;3.97;;
4939;SDS011;2485;49.326;7.214;2023-06-10T11:44:13;5.90;;;5.03;;
4939;SDS011;2485;49.326;7.214;2023-06-10T11:46:39;5.57;;;5.07;;
4939;SDS011;2485;49.326;7.214;2023-06-10T11:49:07;4.50;;;4.10;;
4939;SDS011;2485;49.326;7.214;2023-06-10T11:51:34;6.10;;;4.37;;
4939;SDS011;2485;49.326;7.214;2023-06-10T11:54:01;5.03;;;4.53;;
4939;SDS011;2485;49.326;7.214;2023-06-10T11:56:30;4.80;;;4.33;;
4939;SDS011;2485;49.326;7.214;2023-06-10T11:58:57;4.47;;;4.07;;
4939;SDS011;2485;49.326;7.214;2023-06-10T12:01:24;7.10;;;3.93;;
4939;SDS011;2485;49.326;7.214;2023-06-10T12:04:00;5.80;;;5.03;;
4939;SDS011;2485;49.326;7.214;2023-06-10T12:06:27;5.93;;;4.70;;
4939;SDS011;2485;49.326;7.214;2023-06-10T12:08:54;7.07;;;4.73;;
4939;SDS011;2485;49.326;7.214;2023-06-10T12:11:20;4.97;;;4.47;;
4939;SDS011;2485;49.326;7.214;2023-06-10T12:13:49;5.40;;;4.87;;
4939;SDS011;2485;49.326;7.214;2023-06-10T12:16:16;7.00;;;4.40;;
4939;SDS011;2485;49.326;7.214;2023-06-10T12:18:43;6.70;;;4.90;;
4939;SDS011;2485;49.326;7.214;2023-06-10T12:21:16;5.03;;;4.53;;
4939;SDS011;2485;49.326;7.214;2023-06-10T12:26:33;5.50;;;4.90;;
4939;SDS011;2485;49.326;7.214;2023-06-10T12:29:01;5.67;;;5.10;;
4939;SDS011;2485;49.326;7.214;2023-06-10T12:31:27;5.30;;;4.80;;
4939;SDS011;2485;49.326;7.214;2023-06-10T12:34:07;7.07;;;4.67;;
4939;SDS011;2485;49.326;7.214;2023-06-10T12:36:33;4.83;;;4.40;;
4939;SDS011;2485;49.326;7.214;2023-06-10T12:39:02;5.60;;;5.10;;
4939;SDS011;2485;49.326;7.214;2023-06-10T12:41:28;7.53;;;5.37;;
4939;SDS011;2485;49.326;7.214;2023-06-10T12:43:57;4.80;;;4.30;;
4939;SDS011;2485;49.326;7.214;2023-06-10T12:46:25;4.97;;;4.57;;
4939;SDS011;2485;49.326;7.214;2023-06-10T12:48:51;6.53;;;4.87;;
4939;SDS011;2485;49.326;7.214;2023-06-10T12:51:19;9.73;;;5.00;;
4939;SDS011;2485;49.326;7.214;2023-06-10T12:53:46;5.83;;;5.33;;
4939;SDS011;2485;49.326;7.214;2023-06-10T12:56:12;5.93;;;4.97;;
4939;SDS011;2485;49.326;7.214;2023-06-10T12:58:40;6.80;;;5.00;;
4939;SDS011;2485;49.326;7.214;2023-06-10T13:01:07;6.30;;;5.07;;
4939;SDS011;2485;49.326;7.214;2023-06-10T13:03:36;6.80;;;4.73;;
4939;SDS011;2485;49.326;7.214;2023-06-10T13:06:04;6.60;;;5.37;;
4939;SDS011;2485;49.326;7.214;2023-06-10T13:08:30;6.13;;;5.53;;
4939;SDS011;2485;49.326;7.214;2023-06-10T13:10:57;5.50;;;5.00;;
4939;SDS011;2485;49.326;7.214;2023-06-10T13:13:24;9.03;;;4.73;;
4939;SDS011;2485;49.326;7.214;2023-06-10T13:15:51;7.13;;;4.80;;
4939;SDS011;2485;49.326;7.214;2023-06-10T13:18:17;6.80;;;5.83;;
4939;SDS011;2485;49.326;7.214;2023-06-10T13:20:46;6.47;;;5.60;;
4939;SDS011;2485;49.326;7.214;2023-06-10T13:23:12;5.80;;;5.20;;
4939;SDS011;2485;49.326;7.214;2023-06-10T13:25:39;4.83;;;4.37;;
4939;SDS011;2485;49.326;7.214;2023-06-10T13:28:05;6.07;;;5.50;;
4939;SDS011;2485;49.326;7.214;2023-06-10T13:30:32;6.97;;;6.27;;
4939;SDS011;2485;49.326;7.214;2023-06-10T13:32:58;9.80;;;5.20;;
4939;SDS011;2485;49.326;7.214;2023-06-10T13:35:25;9.87;;;5.97;;
4939;SDS011;2485;49.326;7.214;2023-06-10T13:37:53;19.70;;;7.00;;
4939;SDS011;2485;49.326;7.214;2023-06-10T13:40:19;9.67;;;5.73;;
4939;SDS011;2485;49.326;7.214;2023-06-10T13:42:47;9.23;;;6.23;;
4939;SDS011;2485;49.326;7.214;2023-06-10T13:45:15;11.60;;;6.83;;
4939;SDS011;2485;49.326;7.214;2023-06-10T13:47:42;6.83;;;5.57;;
4939;SDS011;2485;49.326;7.214;2023-06-10T13:50:08;6.13;;;5.53;;
4939;SDS011;2485;49.326;7.214;2023-06-10T13:52:35;5.70;;;5.17;;
4939;SDS011;2485;49.326;7.214;2023-06-10T13:55:03;6.10;;;5.50;;
4939;SDS011;2485;49.326;7.214;2023-06-10T13:57:30;5.53;;;5.03;;
4939;SDS011;2485;49.326;7.214;2023-06-10T13:59:57;7.70;;;5.47;;
4939;SDS011;2485;49.326;7.214;2023-06-10T14:02:23;7.83;;;5.30;;
4939;SDS011;2485;49.326;7.214;2023-06-10T14:04:49;6.27;;;5.50;;
4939;SDS011;2485;49.326;7.214;2023-06-10T14:07:16;6.23;;;5.63;;
4939;SDS011;2485;49.326;7.214;2023-06-10T14:09:42;22.23;;;6.30;;
4939;SDS011;2485;49.326;7.214;2023-06-10T14:12:11;13.30;;;5.70;;
4939;SDS011;2485;49.326;7.214;2023-06-10T14:14:38;6.80;;;5.47;;
4939;SDS011;2485;49.326;7.214;2023-06-10T14:17:05;6.87;;;5.70;;
4939;SDS011;2485;49.326;7.214;2023-06-10T14:19:31;8.80;;;5.40;;
4939;SDS011;2485;49.326;7.214;2023-06-10T14:21:58;7.53;;;5.77;;
4939;SDS011;2485;49.326;7.214;2023-06-10T14:24:24;12.47;;;6.20;;
4939;SDS011;2485;49.326;7.214;2023-06-10T14:26:51;16.27;;;5.70;;
4939;SDS011;2485;49.326;7.214;2023-06-10T14:29:18;23.10;;;8.17;;
4939;SDS011;2485;49.326;7.214;2023-06-10T14:31:45;6.30;;;5.70;;
4939;SDS011;2485;49.326;7.214;2023-06-10T14:34:12;11.60;;;5.63;;
4939;SDS011;2485;49.326;7.214;2023-06-10T14:36:39;7.77;;;4.73;;
4939;SDS011;2485;49.326;7.214;2023-06-10T14:39:05;11.70;;;5.70;;
4939;SDS011;2485;49.326;7.214;2023-06-10T14:41:32;12.63;;;5.93;;
4939;SDS011;2485;49.326;7.214;2023-06-10T14:43:59;5.00;;;4.17;;
4939;SDS011;2485;49.326;7.214;2023-06-10T14:46:27;6.13;;;5.07;;
4939;SDS011;2485;49.326;7.214;2023-06-10T14:48:54;5.83;;;5.23;;
4939;SDS011;2485;49.326;7.214;2023-06-10T14:51:21;12.23;;;5.70;;
4939;SDS011;2485;49.326;7.214;2023-06-10T14:53:47;5.13;;;4.57;;
4939;SDS011;2485;49.326;7.214;2023-06-10T14:56:14;6.87;;;4.67;;
4939;SDS011;2485;49.326;7.214;2023-06-10T14:58:40;4.70;;;4.30;;
4939;SDS011;2485;49.326;7.214;2023-06-10T15:01:07;7.53;;;5.40;;
4939;SDS011;2485;49.326;7.214;2023-06-10T15:03:35;5.40;;;4.90;;
4939;SDS011;2485;49.326;7.214;2023-06-10T15:06:01;5.43;;;4.93;;
4939;SDS011;2485;49.326;7.214;2023-06-10T15:08:28;5.53;;;5.03;;
4939;SDS011;2485;49.326;7.214;2023-06-10T15:10:54;6.03;;;5.20;;
4939;SDS011;2485;49.326;7.214;2023-06-10T15:13:22;6.20;;;4.93;;
4939;SDS011;2485;49.326;7.214;2023-06-10T15:15:48;5.90;;;5.40;;